createdAt,value
2023-11-13T00:01:54.233Z,100043.19
2023-11-13T00:04:57.179Z,100052.84
2023-11-13T00:07:59.934Z,100055.53
2023-11-13T00:11:02.894Z,100061.66
2023-11-13T00:14:05.354Z,100061.69
2023-11-13T00:17:08.328Z,100060.03
2023-11-13T00:20:11.343Z,100067.91
2023-11-13T00:23:14.137Z,100064.31
2023-11-13T00:26:17.274Z,100071.44
2023-11-13T00:29:27.484Z,100075.78
2023-11-13T00:32:31.463Z,100059.03
2023-11-13T00:35:34.859Z,100072.31
2023-11-13T00:38:37.332Z,100069.69
2023-11-13T00:41:43.218Z,100069.53
2023-11-13T00:44:45.641Z,100069.53
2023-11-13T00:47:49.083Z,100074.84
2023-11-13T00:50:52.432Z,100063.41
2023-11-13T00:53:56.308Z,100075.75
2023-11-13T00:56:59.363Z,100059.91
2023-11-13T01:00:04.557Z,100068.72
2023-11-13T01:03:07.302Z,100073.13
2023-11-13T01:06:17.998Z,100086.28
2023-11-13T01:09:20.534Z,100079.22
2023-11-13T01:12:24.120Z,100084.53
2023-11-13T01:15:26.606Z,100087.06
2023-11-13T01:18:29.327Z,100083.56
2023-11-13T01:21:32.718Z,100079.16
2023-11-13T01:24:36.277Z,100082.56
2023-11-13T01:27:38.906Z,100084.38
2023-11-13T01:30:41.701Z,100093.19
2023-11-13T01:33:44.423Z,100095.03
2023-11-13T01:36:47.612Z,100103.75
2023-11-13T01:39:49.934Z,100100.19
2023-11-13T01:42:52.731Z,100098.50
2023-11-13T01:45:59.845Z,100098.53
2023-11-13T01:49:03.209Z,100109.06
2023-11-13T01:52:06.593Z,100099.31
2023-11-13T01:55:13.260Z,100100.22
2023-11-13T01:58:18.604Z,100103.84
2023-11-13T02:01:21.696Z,100093.31
2023-11-13T02:04:24.139Z,100096.81
2023-11-13T02:07:27.776Z,100101.25
2023-11-13T02:10:31.542Z,100098.59
2023-11-13T02:13:36.065Z,100092.44
2023-11-13T02:16:38.602Z,100098.63
2023-11-13T02:19:47.009Z,100101.28
2023-11-13T02:22:49.418Z,100106.59
2023-11-13T02:25:52.849Z,100096.84
2023-11-13T02:28:58.159Z,100103.94
2023-11-13T02:32:02.656Z,100100.44
2023-11-13T02:35:06.312Z,100104.78
2023-11-13T02:38:09.410Z,100104.75
2023-11-13T02:41:11.965Z,100110.03
2023-11-13T02:44:15.860Z,100112.69
2023-11-13T02:47:19.012Z,100117.97
2023-11-13T02:50:22.504Z,100117.94
2023-11-13T02:53:24.963Z,100126.72
2023-11-13T02:56:27.779Z,100130.25
2023-11-13T02:59:30.278Z,100134.63
2023-11-13T03:02:34.690Z,100126.75
2023-11-13T03:05:37.035Z,100126.72
2023-11-13T03:08:41.936Z,100130.97
2023-11-13T03:11:44.313Z,100119.56
2023-11-13T03:14:47.544Z,100118.63
2023-11-13T03:17:49.952Z,100111.59
2023-11-13T03:20:53.315Z,100115.16
2023-11-13T03:23:55.855Z,100105.56
2023-11-13T03:26:59.122Z,100114.28
2023-11-13T03:30:01.535Z,100114.28
2023-11-13T03:33:05.076Z,100111.66
2023-11-13T03:36:07.654Z,100103.81
2023-11-13T03:39:10.429Z,100098.53
2023-11-13T03:42:15.212Z,100093.22
2023-11-13T03:45:18.059Z,100107.28
2023-11-13T03:48:20.416Z,100107.28
2023-11-13T03:51:24.827Z,100116.09
2023-11-13T03:54:27.391Z,100116.13
2023-11-13T03:57:30.955Z,100115.31
2023-11-13T04:00:33.982Z,100115.31
2023-11-13T04:03:36.637Z,100117.06
2023-11-13T04:06:38.999Z,100109.13
2023-11-13T04:09:41.794Z,100112.72
2023-11-13T04:12:44.323Z,100110.09
2023-11-13T04:15:47.207Z,100107.38
2023-11-13T04:18:49.628Z,100111.81
2023-11-13T04:21:52.530Z,100118.81
2023-11-13T04:24:56.319Z,100123.16
2023-11-13T04:27:59.103Z,100110.94
2023-11-13T04:31:03.554Z,100110.88
2023-11-13T04:34:09.012Z,100112.63
2023-11-13T04:37:11.799Z,100107.31
2023-11-13T04:40:14.852Z,100102.03
2023-11-13T04:43:17.681Z,100103.88
2023-11-13T04:46:21.059Z,100107.22
2023-11-13T04:50:15.032Z,100105.63
2023-11-13T04:53:37.284Z,100110.91
2023-11-13T04:57:01.505Z,100110.94
2023-11-13T05:00:13.896Z,100110.16
2023-11-13T05:03:18.127Z,100099.47
2023-11-13T05:06:24.206Z,100106.47
2023-11-13T05:09:27.655Z,100113.44
2023-11-13T05:12:30.955Z,100109.97
2023-11-13T05:15:33.366Z,100110.75
2023-11-13T05:18:36.093Z,100113.31
2023-11-13T05:21:39.612Z,100119.47
2023-11-13T05:24:42.581Z,100123.94
2023-11-13T05:27:44.975Z,100121.31
2023-11-13T05:30:47.656Z,100124.81
2023-11-13T05:33:52.371Z,100126.63
2023-11-13T05:36:55.191Z,100126.63
2023-11-13T05:39:57.604Z,100128.38
2023-11-13T05:43:00.880Z,100134.53
2023-11-13T05:46:04.231Z,100135.41
2023-11-13T05:49:07.377Z,100133.66
2023-11-13T05:52:09.897Z,100138.88
2023-11-13T05:55:12.964Z,100136.28
2023-11-13T05:58:15.407Z,100138.94
2023-11-13T06:01:19.836Z,100147.75
2023-11-13T06:04:22.958Z,100146.00
2023-11-13T06:07:25.814Z,100153.06
2023-11-13T06:10:28.358Z,100161.88
2023-11-13T06:13:34.181Z,100139.81
2023-11-13T06:16:36.814Z,100158.28
2023-11-13T06:19:40.781Z,100162.72
2023-11-13T06:22:44.216Z,100153.91
2023-11-13T06:25:48.855Z,100163.69
2023-11-13T06:28:52.187Z,100153.13
2023-11-13T06:31:55.870Z,100168.88
2023-11-13T06:34:58.859Z,100163.56
2023-11-13T06:38:02.805Z,100166.13
2023-11-13T06:41:08.528Z,100179.41
2023-11-13T06:44:12.253Z,100171.44
2023-11-13T06:47:15.195Z,100174.13
2023-11-13T06:50:19.681Z,100179.34
2023-11-13T06:53:22.914Z,100178.47
2023-11-13T06:56:27.344Z,100186.47
2023-11-13T06:59:29.966Z,100192.59
2023-11-13T07:02:33.506Z,100187.47
2023-11-13T07:05:37.032Z,100192.75
2023-11-13T07:08:40.379Z,100191.84
2023-11-13T07:11:44.702Z,100188.38
2023-11-13T07:14:47.512Z,100186.56
2023-11-13T07:17:50.502Z,100202.44
2023-11-13T07:20:53.832Z,100192.72
2023-11-13T07:23:56.309Z,100198.91
2023-11-13T07:26:59.716Z,100190.13
2023-11-13T07:30:02.710Z,100192.78
2023-11-13T07:33:06.322Z,100195.50
2023-11-13T07:36:12.217Z,100189.38
2023-11-13T07:39:16.481Z,100194.66
2023-11-13T07:42:22.553Z,100184.97
2023-11-13T07:45:26.860Z,100196.44
2023-11-13T07:48:29.500Z,100200.00
2023-11-13T07:51:33.753Z,100191.16
2023-11-13T07:54:36.368Z,100201.75
2023-11-13T07:57:42.252Z,100200.03
2023-11-13T08:00:45.661Z,100201.00
2023-11-13T08:03:50.306Z,100202.78
2023-11-13T08:06:52.867Z,100203.72
2023-11-13T08:09:55.823Z,100210.72
2023-11-13T08:12:58.656Z,100212.44
2023-11-13T08:16:01.579Z,100209.81
2023-11-13T08:19:05.551Z,100208.06
2023-11-13T08:22:08.531Z,100218.59
2023-11-13T08:25:14.769Z,100222.19
2023-11-13T08:28:17.730Z,100224.00
2023-11-13T08:31:22.481Z,100226.75
2023-11-13T08:34:25.658Z,100223.25
2023-11-13T08:37:29.194Z,100218.91
2023-11-13T08:40:32.078Z,100215.41
2023-11-13T08:43:34.766Z,100218.97
2023-11-13T08:46:37.739Z,100222.50
2023-11-13T08:49:43.181Z,100219.94
2023-11-13T08:52:48.644Z,100213.81
2023-11-13T08:55:51.969Z,100219.13
2023-11-13T08:58:57.514Z,100215.53
2023-11-13T09:02:00.262Z,100207.56
2023-11-13T09:05:06.645Z,100214.66
2023-11-13T09:08:10.065Z,100212.81
2023-11-13T09:11:18.348Z,100216.34
2023-11-13T09:14:23.824Z,100219.00
2023-11-13T09:17:26.706Z,100224.31
2023-11-13T09:20:30.791Z,100221.69
2023-11-13T09:23:34.724Z,100215.56
2023-11-13T09:26:37.364Z,100214.72
2023-11-13T09:29:47.882Z,100218.22
2023-11-13T09:32:53.083Z,100219.91
2023-11-13T09:35:56.000Z,100224.25
2023-11-13T09:38:59.521Z,100214.56
2023-11-13T09:42:05.984Z,100218.09
2023-11-13T09:45:09.132Z,100226.09
2023-11-13T09:48:17.203Z,100220.81
2023-11-13T09:51:27.940Z,100222.53
2023-11-13T09:54:34.155Z,100219.00
2023-11-13T09:57:36.652Z,100220.84
2023-11-13T10:00:42.059Z,100225.28
2023-11-13T10:03:45.102Z,100227.03
2023-11-13T10:06:54.639Z,100229.72
2023-11-13T10:10:04.901Z,100229.72
2023-11-13T10:13:11.849Z,100244.75
2023-11-13T10:16:22.917Z,100230.63
2023-11-13T10:19:26.071Z,100233.31
2023-11-13T10:22:31.502Z,100231.53
2023-11-13T10:25:47.578Z,100232.41
2023-11-13T10:28:52.703Z,100232.34
2023-11-13T10:31:56.017Z,100245.59
2023-11-13T10:34:58.554Z,100229.75
2023-11-13T10:38:04.578Z,100220.91
2023-11-13T10:41:07.183Z,100232.41
2023-11-13T10:44:31.983Z,100228.88
2023-11-13T10:47:36.784Z,100222.72
2023-11-13T10:50:39.705Z,100226.22
2023-11-13T10:53:47.688Z,100220.06
2023-11-13T10:56:50.763Z,100222.75
2023-11-13T10:59:54.753Z,100220.97
2023-11-13T11:02:59.371Z,100215.72
2023-11-13T11:06:11.398Z,100222.81
2023-11-13T11:09:19.867Z,100213.97
2023-11-13T11:12:23.917Z,100218.38
2023-11-13T11:16:06.085Z,100219.31
2023-11-13T11:19:17.399Z,100221.97
2023-11-13T11:22:32.522Z,100212.25
2023-11-13T11:25:49.338Z,100205.19
2023-11-13T11:28:57.227Z,100212.28
2023-11-13T11:32:01.022Z,100208.75
2023-11-13T11:35:05.819Z,100203.41
2023-11-13T11:38:28.125Z,100210.50
2023-11-13T11:41:42.542Z,100204.31
2023-11-13T11:45:04.124Z,100213.13
2023-11-13T11:48:11.205Z,100209.63
2023-11-13T11:51:16.880Z,100204.34
2023-11-13T11:54:24.154Z,100190.25
2023-11-13T11:57:28.398Z,100191.13
2023-11-13T12:00:32.754Z,100195.53
2023-11-13T12:03:35.960Z,100193.75
2023-11-13T12:06:40.668Z,100191.06
2023-11-13T12:09:45.960Z,100190.22
2023-11-13T12:12:50.391Z,100188.44
2023-11-13T12:15:56.514Z,100180.53
2023-11-13T12:19:00.280Z,100173.47
2023-11-13T12:22:05.067Z,100166.41
2023-11-13T12:25:09.729Z,100177.00
2023-11-13T12:28:13.087Z,100166.44
2023-11-13T12:31:22.869Z,100160.25
2023-11-13T12:34:25.869Z,100155.81
2023-11-13T12:37:29.426Z,100158.47
2023-11-13T12:40:32.211Z,100153.16
2023-11-13T12:43:35.086Z,100148.75
2023-11-13T12:46:38.819Z,100153.16
2023-11-13T12:49:42.034Z,100156.69
2023-11-13T12:52:45.677Z,100153.16
2023-11-13T12:55:52.425Z,100155.81
2023-11-13T12:58:56.265Z,100156.69
2023-11-13T13:02:00.129Z,100160.22
2023-11-13T13:05:18.684Z,100162.88
2023-11-13T13:08:29.657Z,100171.69
2023-11-13T13:11:36.074Z,100173.47
2023-11-13T13:14:38.992Z,100171.69
2023-11-13T13:17:41.632Z,100165.50
2023-11-13T13:20:44.785Z,100164.66
2023-11-13T13:23:47.332Z,100158.47
2023-11-13T13:26:50.642Z,100146.09
2023-11-13T13:29:53.224Z,100147.81
2023-11-13T13:32:56.646Z,100150.50
2023-11-13T13:36:00.438Z,100145.19
2023-11-13T13:39:07.882Z,100139.91
2023-11-13T13:42:10.330Z,100131.94
2023-11-13T13:45:18.586Z,100131.94
2023-11-13T13:48:21.996Z,100140.75
2023-11-13T13:51:26.404Z,100127.47
2023-11-13T13:54:28.961Z,100127.47
2023-11-13T13:57:31.933Z,100119.56
2023-11-13T14:00:39.513Z,100120.44
2023-11-13T14:03:43.209Z,100127.56
2023-11-13T14:06:47.901Z,100119.59
2023-11-13T14:09:53.199Z,100127.53
2023-11-13T14:12:56.010Z,100128.41
2023-11-13T14:16:07.035Z,100128.44
2023-11-13T14:19:12.158Z,100113.41
2023-11-13T14:22:15.255Z,100120.47
2023-11-13T14:25:18.914Z,100108.97
2023-11-13T14:28:23.563Z,100116.03
2023-11-13T14:31:26.781Z,100113.41
2023-11-13T14:34:29.675Z,100117.84
2023-11-13T14:37:32.186Z,100124.94
2023-11-13T14:40:35.531Z,100116.06
2023-11-13T14:43:40.860Z,100122.28
2023-11-13T14:46:43.698Z,100107.25
2023-11-13T14:49:47.409Z,100111.72
2023-11-13T14:52:52.394Z,100113.47
2023-11-13T14:55:55.995Z,100112.56
2023-11-13T14:58:59.966Z,100104.63
2023-11-13T15:02:02.592Z,100111.69
2023-11-13T15:05:08.612Z,100112.56
2023-11-13T15:08:11.944Z,100105.50
2023-11-13T15:11:14.783Z,100116.97
2023-11-13T15:14:17.369Z,100112.56
2023-11-13T15:17:20.441Z,100116.13
2023-11-13T15:20:23.784Z,100109.91
2023-11-13T15:23:39.049Z,100111.69
2023-11-13T15:26:48.769Z,100116.13
2023-11-13T15:29:51.564Z,100115.25
2023-11-13T15:32:55.032Z,100109.03
2023-11-13T15:35:57.898Z,100109.03
2023-11-13T15:39:03.281Z,100109.91
2023-11-13T15:42:11.506Z,100109.03
2023-11-13T15:45:14.534Z,100104.66
2023-11-13T15:48:18.611Z,100101.09
2023-11-13T15:51:21.104Z,100114.34
2023-11-13T15:54:24.013Z,100112.56
2023-11-13T15:57:26.571Z,100108.16
2023-11-13T16:00:30.555Z,100114.31
2023-11-13T16:03:39.990Z,100108.13
2023-11-13T16:06:46.840Z,100097.53
2023-11-13T16:09:49.894Z,100100.16
2023-11-13T16:12:55.484Z,100100.13
2023-11-13T16:15:59.279Z,100093.88
2023-11-13T16:19:06.126Z,100092.13
2023-11-13T16:22:08.686Z,100088.59
2023-11-13T16:25:12.179Z,100088.53
2023-11-13T16:28:14.753Z,100087.59
2023-11-13T16:31:18.187Z,100086.72
2023-11-13T16:34:21.853Z,100081.44
2023-11-13T16:37:25.008Z,100080.50
2023-11-13T16:40:28.687Z,100072.56
2023-11-13T16:43:32.881Z,100074.25
2023-11-13T16:46:35.711Z,100072.50
2023-11-13T16:49:43.050Z,100068.88
2023-11-13T16:52:46.368Z,100064.41
2023-11-13T16:55:49.516Z,100068.75
2023-11-13T16:58:53.865Z,100068.63
2023-11-13T17:01:56.922Z,100063.25
2023-11-13T17:04:59.340Z,100063.25
2023-11-13T17:08:07.446Z,100069.41
2023-11-13T17:11:10.457Z,100060.56
2023-11-13T17:14:14.570Z,100064.94
2023-11-13T17:17:19.728Z,100056.03
2023-11-13T17:20:23.301Z,100066.50
2023-11-13T17:23:27.168Z,100069.97
2023-11-13T17:26:30.488Z,100066.34
2023-11-13T17:29:38.911Z,100065.41
2023-11-13T17:32:47.005Z,100072.41
2023-11-13T17:35:50.614Z,100073.22
2023-11-13T17:38:53.779Z,100065.25
2023-11-13T17:41:58.034Z,100079.16
2023-11-13T17:45:05.602Z,100066.78
2023-11-13T17:48:14.311Z,100058.78
2023-11-13T17:51:20.206Z,100043.66
2023-11-13T17:54:24.944Z,100054.19
2023-11-13T17:57:30.974Z,100047.94
2023-11-13T18:00:35.248Z,100039.09
2023-11-13T18:03:39.897Z,100042.50
2023-11-13T18:06:44.840Z,100033.69
2023-11-13T18:09:48.597Z,100028.38
2023-11-13T18:12:52.557Z,100022.19
2023-11-13T18:16:05.559Z,100022.13
2023-11-13T18:19:28.326Z,100011.50
2023-11-13T18:22:34.749Z,99999.94
2023-11-13T18:25:39.505Z,99998.03
2023-11-13T18:28:50.305Z,99991.81
2023-11-13T18:31:58.816Z,99983.88
2023-11-13T18:35:05.296Z,99977.69
2023-11-13T18:38:09.431Z,99973.19
2023-11-13T18:41:14.863Z,99971.38
2023-11-13T18:44:29.704Z,99967.47
2023-11-13T18:47:39.832Z,99963.94
2023-11-13T18:50:47.880Z,99962.84
2023-11-13T18:53:57.213Z,99950.69
2023-11-13T18:57:01.002Z,99949.72
2023-11-13T19:00:10.197Z,99946.97
2023-11-13T19:03:20.866Z,99938.91
2023-11-13T19:06:29.411Z,99943.16
2023-11-13T19:09:34.373Z,99948.41
2023-11-13T19:12:46.942Z,99942.16
2023-11-13T19:15:55.157Z,99929.88
2023-11-13T19:19:01.308Z,99934.22
2023-11-13T19:22:10.407Z,99926.16
2023-11-13T19:25:14.586Z,99925.22
2023-11-13T19:28:19.418Z,99924.22
2023-11-13T19:31:28.451Z,99926.78
2023-11-13T19:35:06.808Z,99923.13
2023-11-13T19:38:15.531Z,99924.88
2023-11-13T19:41:31.037Z,99911.75
2023-11-13T19:45:06.550Z,99910.19
2023-11-13T19:48:13.156Z,99905.81
2023-11-13T19:51:18.570Z,99902.44
2023-11-13T19:54:24.978Z,99906.00
2023-11-13T19:57:29.050Z,99889.38
2023-11-13T20:00:33.602Z,99887.75
2023-11-13T20:03:39.519Z,99895.69
2023-11-13T20:06:43.896Z,99884.31
2023-11-13T20:09:49.928Z,99875.47
2023-11-13T20:12:54.507Z,99883.31
2023-11-13T20:16:02.537Z,99880.69
2023-11-13T20:19:07.994Z,99865.78
2023-11-13T20:22:12.398Z,99854.38
2023-11-13T20:25:18.464Z,99841.22
2023-11-13T20:28:23.166Z,99823.66
2023-11-13T20:31:27.533Z,99805.22
2023-11-13T20:34:33.628Z,99819.22
2023-11-13T20:37:37.989Z,99819.25
2023-11-13T20:40:43.147Z,99824.53
2023-11-13T20:43:47.394Z,99807.09
2023-11-13T20:46:52.974Z,99823.88
2023-11-13T20:49:57.279Z,99823.13
2023-11-13T20:53:02.271Z,99832.81
2023-11-13T20:56:07.371Z,99825.00
2023-11-13T20:59:13.011Z,99827.69
2023-11-13T21:02:16.960Z,99822.47
2023-11-13T21:05:21.024Z,99800.63
2023-11-13T21:08:27.666Z,99807.56
2023-11-13T21:11:32.013Z,99776.06
2023-11-13T21:14:35.092Z,99761.97
2023-11-13T21:17:38.232Z,99764.59
2023-11-13T21:20:43.553Z,99775.16
2023-11-13T21:23:46.332Z,99751.63
2023-11-13T21:26:50.264Z,99730.50
2023-11-13T21:29:53.636Z,99729.56
2023-11-13T21:32:57.576Z,99740.09
2023-11-13T21:36:01.417Z,99741.94
2023-11-13T21:39:08.579Z,99738.38
2023-11-13T21:42:12.222Z,99748.03
2023-11-13T21:45:18.458Z,99726.16
2023-11-13T21:48:21.851Z,99703.38
2023-11-13T21:51:24.691Z,99686.78
2023-11-13T21:54:28.016Z,99657.84
2023-11-13T21:57:33.065Z,99654.38
2023-11-13T22:00:37.989Z,99634.19
2023-11-13T22:03:47.849Z,99638.53
2023-11-13T22:06:51.349Z,99622.69
2023-11-13T22:09:53.910Z,99638.31
2023-11-13T22:12:58.030Z,99650.56
2023-11-13T22:16:00.868Z,99662.88
2023-11-13T22:19:10.575Z,99654.25
2023-11-13T22:22:13.086Z,99616.47
2023-11-13T22:25:15.944Z,99605.06
2023-11-13T22:28:18.557Z,99614.69
2023-11-13T22:31:22.736Z,99608.56
2023-11-13T22:34:25.487Z,99604.25
2023-11-13T22:37:28.316Z,99589.38
2023-11-13T22:40:35.923Z,99572.91
2023-11-13T22:43:42.439Z,99577.16
2023-11-13T22:46:46.589Z,99572.78
2023-11-13T22:49:51.097Z,99570.16
2023-11-13T22:52:53.683Z,99587.75
2023-11-13T22:55:56.690Z,99591.25
2023-11-13T22:59:00.526Z,99581.75
2023-11-13T23:02:03.405Z,99589.66
2023-11-13T23:05:06.322Z,99594.16
2023-11-13T23:08:09.337Z,99583.66
2023-11-13T23:11:13.301Z,99588.97
2023-11-13T23:14:17.538Z,99566.19
2023-11-13T23:17:20.224Z,99553.84
2023-11-13T23:20:25.859Z,99545.09
2023-11-13T23:23:28.492Z,99528.47
2023-11-13T23:26:31.287Z,99508.38
2023-11-13T23:29:33.992Z,99501.34
2023-11-13T23:32:37.131Z,99495.25
2023-11-13T23:35:42.454Z,99487.34
2023-11-13T23:38:45.369Z,99488.22
2023-11-13T23:41:47.913Z,99476.75
2023-11-13T23:44:51.956Z,99509.28
2023-11-13T23:47:55.128Z,99502.25
2023-11-13T23:50:58.966Z,99489.09
2023-11-13T23:54:06.013Z,99496.13
2023-11-13T23:57:09.029Z,99492.56
